Time;durP1;ratioP1;P1;durP2;ratioP2;P2;SDS_P1;SDS_P2;PMS_P1;PMS_P2;Temp;Humidity;BMP_temperature;BMP_pressure;BME280_temperature;BME280_humidity;BME280_pressure;Samples;Min_cycle;Max_cycle;Signal;HPM_P1;HPM_P2
2023/09/21 00:01:39;;;;;;;3.22;2.40;;;15.40;99.90;;;;;;5097883;28;20074;-71
2023/09/21 00:04:06;;;;;;;2.40;2.20;;;15.40;99.90;;;;;;5104147;28;20038;-72
2023/09/21 00:06:32;;;;;;;3.38;2.40;;;15.30;99.90;;;;;;5106234;28;20484;-72
2023/09/21 00:08:57;;;;;;;4.68;2.90;;;15.30;99.90;;;;;;5094581;28;20150;-71
2023/09/21 00:11:23;;;;;;;3.65;2.30;;;15.30;99.90;;;;;;5099958;28;20059;-71
2023/09/21 00:13:49;;;;;;;3.00;2.03;;;15.30;99.90;;;;;;5099031;28;20077;-71
2023/09/21 00:16:18;;;;;;;4.25;2.15;;;15.30;99.90;;;;;;5106594;28;20023;-72
2023/09/21 00:18:45;;;;;;;2.90;2.05;;;15.20;99.90;;;;;;5086139;28;20043;-71
2023/09/21 00:21:12;;;;;;;4.45;2.42;;;15.30;99.90;;;;;;5102579;28;20423;-72
2023/09/21 00:23:38;;;;;;;4.18;2.33;;;15.20;99.90;;;;;;5106471;28;20469;-71
2023/09/21 00:26:04;;;;;;;3.58;2.28;;;15.20;99.90;;;;;;5088597;28;20037;-72
2023/09/21 00:28:30;;;;;;;4.18;2.53;;;15.20;99.90;;;;;;5090960;28;20036;-71
2023/09/21 00:30:59;;;;;;;2.70;2.22;;;15.20;99.90;;;;;;5093458;28;20024;-71
2023/09/21 00:33:33;;;;;;;2.40;1.90;;;15.20;99.90;;;;;;5095424;28;20020;-72
2023/09/21 00:35:59;;;;;;;3.97;2.20;;;15.20;99.90;;;;;;5100758;28;20062;-72
2023/09/21 00:38:26;;;;;;;2.17;1.85;;;15.20;99.90;;;;;;5102653;28;20071;-71
2023/09/21 00:41:00;;;;;;;3.15;2.10;;;15.20;99.90;;;;;;5104871;28;20476;-72
2023/09/21 00:43:28;;;;;;;2.75;1.88;;;15.20;99.90;;;;;;5092838;28;20035;-71
2023/09/21 00:45:57;;;;;;;2.53;2.03;;;15.20;99.90;;;;;;5097933;28;20112;-72
2023/09/21 00:48:33;;;;;;;2.85;2.20;;;15.20;99.90;;;;;;5103378;28;20031;-71
2023/09/21 00:51:00;;;;;;;3.53;2.00;;;15.20;99.90;;;;;;5104903;28;20107;-71
2023/09/21 00:53:28;;;;;;;1.73;1.63;;;15.10;99.90;;;;;;5099833;28;20020;-72
2023/09/21 00:56:02;;;;;;;1.65;1.55;;;15.00;99.90;;;;;;5093968;28;20040;-71
2023/09/21 00:58:30;;;;;;;2.45;1.80;;;15.00;99.90;;;;;;5102610;28;20036;-71
2023/09/21 01:00:59;;;;;;;3.10;2.10;;;15.00;99.90;;;;;;5098603;28;20081;-71
2023/09/21 01:03:24;;;;;;;2.50;2.10;;;15.00;99.90;;;;;;5093886;28;20459;-72
2023/09/21 01:05:51;;;;;;;2.75;1.90;;;15.00;99.90;;;;;;5103050;28;20028;-71
2023/09/21 01:08:21;;;;;;;5.45;2.50;;;15.00;99.90;;;;;;5097103;28;20506;-71
2023/09/21 01:10:50;;;;;;;4.35;2.50;;;15.00;99.90;;;;;;5092580;28;20028;-71
2023/09/21 01:13:19;;;;;;;2.38;2.17;;;15.00;99.90;;;;;;5105510;28;20034;-71
2023/09/21 01:15:58;;;;;;;2.73;1.97;;;15.00;99.90;;;;;;5106502;28;20024;-71
2023/09/21 01:18:24;;;;;;;3.40;1.90;;;15.00;99.90;;;;;;5100772;28;20801;-71
2023/09/21 01:20:54;;;;;;;3.40;2.08;;;14.90;99.90;;;;;;5100967;28;20036;-71
2023/09/21 01:23:24;;;;;;;2.70;2.40;;;15.00;99.90;;;;;;5099875;28;20038;-71
2023/09/21 01:25:51;;;;;;;2.53;2.20;;;15.00;99.90;;;;;;5090987;28;20063;-71
2023/09/21 01:28:22;;;;;;;2.20;1.77;;;15.00;99.90;;;;;;5094414;28;20032;-71
2023/09/21 01:30:56;;;;;;;2.42;1.70;;;15.00;99.90;;;;;;5091383;28;20499;-71
2023/09/21 01:33:23;;;;;;;3.20;2.15;;;15.00;99.90;;;;;;5099295;28;20084;-71
2023/09/21 01:35:49;;;;;;;7.15;2.30;;;15.00;99.90;;;;;;5100920;28;20433;-71
2023/09/21 01:38:15;;;;;;;3.30;2.10;;;15.00;99.90;;;;;;5088296;28;20025;-71
2023/09/21 01:40:41;;;;;;;2.20;1.98;;;15.00;99.90;;;;;;5107225;28;20357;-71
2023/09/21 01:43:09;;;;;;;3.58;2.22;;;15.00;99.90;;;;;;5095875;28;20027;-71
2023/09/21 01:45:37;;;;;;;2.35;2.00;;;15.00;99.90;;;;;;5097645;28;20384;-71
2023/09/21 01:48:08;;;;;;;2.85;2.20;;;15.00;99.90;;;;;;5107763;28;20081;-72
2023/09/21 01:50:40;;;;;;;7.30;2.35;;;15.00;99.90;;;;;;5109313;28;20399;-71
2023/09/21 01:53:11;;;;;;;3.10;2.00;;;15.00;99.90;;;;;;5096500;28;20024;-72
2023/09/21 01:55:38;;;;;;;2.72;1.88;;;15.00;99.90;;;;;;5091645;28;20480;-71
2023/09/21 01:58:05;;;;;;;4.63;2.22;;;15.10;99.90;;;;;;5098565;28;20039;-71
2023/09/21 02:00:35;;;;;;;4.15;2.47;;;15.10;99.90;;;;;;5097984;28;20038;-70
2023/09/21 02:03:06;;;;;;;2.35;2.15;;;15.10;99.90;;;;;;5091910;28;20036;-71
2023/09/21 02:05:32;;;;;;;3.08;2.47;;;15.20;99.90;;;;;;5109831;28;20060;-70
2023/09/21 02:07:58;;;;;;;2.65;1.95;;;15.20;99.90;;;;;;5099626;28;20099;-70
2023/09/21 02:10:24;;;;;;;2.35;2.10;;;15.20;99.90;;;;;;5100787;28;20028;-70
2023/09/21 02:12:57;;;;;;;3.28;2.35;;;15.30;99.90;;;;;;5084424;28;20028;-70
2023/09/21 02:15:25;;;;;;;2.53;1.90;;;15.30;99.90;;;;;;5100070;28;20107;-71
2023/09/21 02:17:52;;;;;;;2.53;2.22;;;15.30;99.90;;;;;;5101323;28;20028;-71
2023/09/21 02:20:20;;;;;;;3.20;2.28;;;15.30;99.90;;;;;;5084526;28;20142;-70
2023/09/21 02:22:47;;;;;;;2.45;2.10;;;15.30;99.90;;;;;;5098887;28;20349;-71
2023/09/21 02:25:13;;;;;;;2.25;1.95;;;15.20;99.90;;;;;;5092578;28;20020;-70
2023/09/21 02:27:40;;;;;;;2.78;1.95;;;15.20;99.90;;;;;;5091517;28;20024;-70
2023/09/21 02:30:16;;;;;;;3.20;2.17;;;15.20;99.90;;;;;;5089362;28;20101;-70
2023/09/21 02:32:42;;;;;;;2.88;2.13;;;15.20;99.90;;;;;;5099790;28;20023;-70
2023/09/21 02:35:15;;;;;;;2.90;2.13;;;15.20;99.90;;;;;;5094216;28;20048;-70
2023/09/21 02:37:45;;;;;;;2.50;2.05;;;15.20;99.90;;;;;;5104094;28;20020;-70
2023/09/21 02:40:14;;;;;;;;;;;15.20;99.90;;;;;;5107689;28;20019;-70
2023/09/21 02:42:41;;;;;;;2.97;2.40;;;15.20;99.90;;;;;;5108622;28;19908;-70
2023/09/21 02:45:10;;;;;;;2.50;2.10;;;15.20;99.90;;;;;;5046787;28;1108716;-70
2023/09/21 02:47:37;;;;;;;3.15;2.38;;;15.20;99.90;;;;;;5090403;28;20361;-70
2023/09/21 02:50:10;;;;;;;2.50;2.13;;;15.20;99.90;;;;;;5110220;28;20035;-71
2023/09/21 02:52:36;;;;;;;12.57;2.17;;;15.30;99.90;;;;;;5098884;28;20023;-70
2023/09/21 02:55:01;;;;;;;3.72;2.22;;;15.30;99.90;;;;;;5092148;28;20388;-71
2023/09/21 02:57:29;;;;;;;2.65;2.08;;;15.30;99.90;;;;;;5096823;28;20027;-70
2023/09/21 02:59:55;;;;;;;2.75;2.17;;;15.30;99.90;;;;;;5094374;28;20039;-70
2023/09/21 03:02:20;;;;;;;2.88;2.15;;;15.20;99.90;;;;;;5099727;28;20024;-70
2023/09/21 03:04:48;;;;;;;3.25;2.10;;;15.30;99.90;;;;;;5104532;28;20081;-70
2023/09/21 03:07:17;;;;;;;3.35;1.92;;;15.30;99.90;;;;;;5103837;28;20032;-70
2023/09/21 03:09:42;;;;;;;2.85;1.88;;;15.20;99.90;;;;;;5097216;28;20444;-70
2023/09/21 03:12:08;;;;;;;3.38;2.40;;;15.20;99.90;;;;;;5097530;28;20056;-70
2023/09/21 03:14:34;;;;;;;3.20;2.42;;;15.30;99.90;;;;;;5092482;28;20024;-70
2023/09/21 03:17:01;;;;;;;6.18;2.40;;;15.30;99.90;;;;;;5091889;28;20016;-70
2023/09/21 03:19:27;;;;;;;5.20;2.50;;;15.30;99.90;;;;;;5090507;28;20500;-70
2023/09/21 03:21:53;;;;;;;3.38;2.30;;;15.30;99.90;;;;;;5092889;28;20095;-70
2023/09/21 03:24:18;;;;;;;4.63;2.85;;;15.40;99.90;;;;;;5089838;28;20027;-70
2023/09/21 03:26:45;;;;;;;2.92;2.13;;;15.30;99.90;;;;;;5084504;28;20155;-69
2023/09/21 03:29:12;;;;;;;3.15;2.35;;;15.40;99.90;;;;;;5089941;28;20028;-69
2023/09/21 03:31:38;;;;;;;2.60;2.30;;;15.40;99.90;;;;;;5092149;28;20165;-69
2023/09/21 03:34:05;;;;;;;2.88;2.35;;;15.50;99.90;;;;;;5092069;28;20056;-69
2023/09/21 03:36:33;;;;;;;2.88;2.45;;;15.50;99.90;;;;;;5091745;28;20044;-69
2023/09/21 03:38:59;;;;;;;3.55;2.95;;;15.50;99.90;;;;;;5094364;28;20515;-70
2023/09/21 03:41:26;;;;;;;3.25;2.50;;;15.50;99.90;;;;;;5093009;28;20048;-69
2023/09/21 03:43:52;;;;;;;3.63;2.95;;;15.50;99.90;;;;;;5091509;28;20348;-69
2023/09/21 03:46:18;;;;;;;3.75;2.17;;;15.50;99.90;;;;;;5090373;28;20051;-69
2023/09/21 03:48:44;;;;;;;4.50;2.40;;;15.50;99.90;;;;;;5093535;28;20024;-69
2023/09/21 03:51:10;;;;;;;3.97;2.60;;;15.50;99.90;;;;;;5092115;28;20104;-69
2023/09/21 03:53:36;;;;;;;4.03;2.47;;;15.50;99.90;;;;;;5091860;28;20501;-69
2023/09/21 03:56:01;;;;;;;3.03;2.40;;;15.50;99.90;;;;;;5082732;28;20024;-71
2023/09/21 03:58:28;;;;;;;3.58;2.60;;;15.60;99.90;;;;;;5090949;28;20352;-70
2023/09/21 04:00:55;;;;;;;2.50;2.28;;;15.60;99.90;;;;;;5091687;28;20369;-69
2023/09/21 04:03:20;;;;;;;3.90;2.65;;;15.60;99.90;;;;;;5092283;28;20127;-70
2023/09/21 04:05:46;;;;;;;4.07;2.40;;;15.60;99.90;;;;;;5092751;28;20103;-70
2023/09/21 04:08:12;;;;;;;3.53;2.17;;;15.70;99.90;;;;;;5092145;28;20107;-70
2023/09/21 04:10:37;;;;;;;3.45;2.17;;;15.70;99.90;;;;;;5089875;28;20028;-69
2023/09/21 04:13:05;;;;;;;5.00;2.40;;;15.60;99.90;;;;;;5089751;28;20028;-70
2023/09/21 04:15:30;;;;;;;2.30;2.10;;;15.70;99.90;;;;;;5090894;28;20097;-69
2023/09/21 04:17:57;;;;;;;2.95;2.28;;;15.60;99.90;;;;;;5092493;28;20073;-70
2023/09/21 04:20:23;;;;;;;3.08;1.85;;;15.70;99.90;;;;;;5087013;28;20028;-70
2023/09/21 04:22:50;;;;;;;3.40;2.10;;;15.70;99.90;;;;;;5092306;28;20378;-69
2023/09/21 04:25:17;;;;;;;4.05;2.35;;;15.70;99.90;;;;;;5084589;28;20020;-70
2023/09/21 04:27:44;;;;;;;2.53;2.28;;;15.70;99.90;;;;;;5089893;28;20114;-70
2023/09/21 04:30:16;;;;;;;3.25;2.38;;;15.70;99.90;;;;;;5089247;28;20020;-70
2023/09/21 04:32:46;;;;;;;2.72;2.28;;;15.70;99.90;;;;;;5091562;28;20027;-70
2023/09/21 04:35:13;;;;;;;2.72;2.40;;;15.70;99.90;;;;;;5090788;28;20024;-69
2023/09/21 04:37:38;;;;;;;5.15;2.40;;;15.70;99.90;;;;;;5093902;28;20426;-69
2023/09/21 04:40:09;;;;;;;4.97;3.28;;;15.70;99.90;;;;;;5091726;28;20112;-70
2023/09/21 04:42:38;;;;;;;4.32;2.47;;;15.80;99.90;;;;;;5090725;28;20391;-69
2023/09/21 04:45:09;;;;;;;3.53;2.50;;;15.80;99.90;;;;;;5079253;28;20045;-70
2023/09/21 04:47:36;;;;;;;3.72;2.40;;;15.80;99.90;;;;;;5061460;28;20027;-69
2023/09/21 04:50:02;;;;;;;2.95;2.20;;;15.80;99.90;;;;;;5064385;28;20104;-71
2023/09/21 04:52:34;;;;;;;3.00;2.63;;;15.80;99.90;;;;;;5065261;28;20108;-69
2023/09/21 04:55:03;;;;;;;4.68;2.80;;;15.80;99.90;;;;;;5057055;28;20033;-70
2023/09/21 04:57:30;;;;;;;3.65;2.38;;;15.80;99.90;;;;;;5065122;28;20108;-69
2023/09/21 04:59:59;;;;;;;2.63;2.38;;;15.80;99.90;;;;;;5065321;28;20028;-69
2023/09/21 05:02:25;;;;;;;13.25;2.63;;;15.80;99.90;;;;;;5060368;28;20024;-70
2023/09/21 05:04:51;;;;;;;4.32;2.40;;;15.80;99.90;;;;;;5082253;28;20491;-69
2023/09/21 05:07:17;;;;;;;3.55;2.55;;;15.80;99.90;;;;;;5081431;28;20095;-69
2023/09/21 05:09:46;;;;;;;4.82;2.88;;;15.80;99.90;;;;;;5075392;28;20435;-68
2023/09/21 05:12:12;;;;;;;3.22;2.75;;;15.80;99.90;;;;;;5083046;28;20095;-69
2023/09/21 05:14:38;;;;;;;8.00;2.70;;;15.80;99.90;;;;;;5074592;28;20464;-69
2023/09/21 05:17:05;;;;;;;5.45;3.05;;;15.90;99.90;;;;;;5083109;28;20093;-70
2023/09/21 05:19:31;;;;;;;5.35;3.25;;;15.90;99.90;;;;;;5075323;28;20116;-69
2023/09/21 05:21:57;;;;;;;4.75;3.00;;;16.00;99.90;;;;;;5084254;28;20054;-68
2023/09/21 05:24:25;;;;;;;4.55;3.35;;;16.00;99.90;;;;;;5083726;28;20031;-68
2023/09/21 05:26:52;;;;;;;4.38;3.03;;;16.10;99.90;;;;;;5064771;28;20025;-69
2023/09/21 05:29:18;;;;;;;3.15;2.50;;;16.10;99.90;;;;;;5070299;28;20511;-68
2023/09/21 05:31:44;;;;;;;3.60;2.90;;;16.10;99.90;;;;;;5078531;28;20115;-68
2023/09/21 05:34:10;;;;;;;3.85;2.50;;;16.10;99.90;;;;;;5072081;28;20036;-68
2023/09/21 05:36:36;;;;;;;3.85;2.88;;;16.10;99.90;;;;;;5076937;28;20089;-69
2023/09/21 05:39:01;;;;;;;6.75;3.63;;;16.10;99.90;;;;;;5084070;28;20129;-69
2023/09/21 05:41:27;;;;;;;5.63;3.80;;;16.20;99.90;;;;;;5088729;28;20373;-69
2023/09/21 05:43:53;;;;;;;3.83;3.20;;;16.30;99.90;;;;;;5078688;28;20029;-69
2023/09/21 05:46:18;;;;;;;4.35;2.80;;;16.30;99.90;;;;;;5098126;28;20040;-70
2023/09/21 05:48:45;;;;;;;4.38;3.38;;;16.40;99.90;;;;;;5108291;28;20048;-68
2023/09/21 05:51:12;;;;;;;5.22;3.00;;;16.40;99.90;;;;;;5105315;28;20468;-69
2023/09/21 05:53:37;;;;;;;4.85;3.05;;;16.50;99.90;;;;;;5098491;28;20081;-68
2023/09/21 05:56:04;;;;;;;3.65;2.65;;;16.50;99.90;;;;;;5088772;28;20036;-67
2023/09/21 05:58:32;;;;;;;4.97;2.85;;;16.60;99.90;;;;;;5099895;28;20126;-67
2023/09/21 06:00:59;;;;;;;4.72;2.70;;;16.60;99.90;;;;;;5097260;28;20488;-68
2023/09/21 06:03:26;;;;;;;5.75;2.92;;;16.70;99.90;;;;;;5097374;28;20020;-68
2023/09/21 06:05:52;;;;;;;4.63;3.55;;;16.70;99.90;;;;;;5105432;28;20445;-67
2023/09/21 06:08:19;;;;;;;3.35;2.78;;;16.80;99.90;;;;;;5095131;28;20028;-68
2023/09/21 06:10:45;;;;;;;4.05;3.33;;;16.90;99.90;;;;;;5098796;28;20039;-67
2023/09/21 06:13:12;;;;;;;5.85;2.70;;;17.00;99.90;;;;;;5104400;28;20024;-68
2023/09/21 06:15:47;;;;;;;6.00;3.25;;;16.90;99.90;;;;;;5109052;28;20032;-67
2023/09/21 06:18:14;;;;;;;6.25;3.65;;;17.00;99.90;;;;;;5099529;28;20105;-66
2023/09/21 06:20:42;;;;;;;7.47;3.50;;;17.00;99.90;;;;;;5102406;28;20028;-67
2023/09/21 06:23:08;;;;;;;4.68;3.25;;;17.10;99.90;;;;;;5105574;28;20087;-68
2023/09/21 06:25:35;;;;;;;9.35;3.92;;;17.20;99.90;;;;;;5094093;28;20425;-67
2023/09/21 06:28:00;;;;;;;7.43;3.75;;;17.20;99.90;;;;;;5109226;28;20026;-68
2023/09/21 06:30:26;;;;;;;11.90;4.03;;;17.20;99.90;;;;;;5090776;28;20373;-67
2023/09/21 06:32:55;;;;;;;7.22;3.80;;;17.30;99.90;;;;;;5101307;28;20081;-68
2023/09/21 06:35:23;;;;;;;8.35;4.35;;;17.40;99.90;;;;;;5110135;28;20457;-67
2023/09/21 06:37:54;;;;;;;7.15;4.20;;;17.40;99.90;;;;;;5101277;28;20035;-66
2023/09/21 06:40:26;;;;;;;11.85;4.75;;;17.50;99.90;;;;;;5102414;28;20059;-66
2023/09/21 06:42:52;;;;;;;8.52;4.55;;;17.50;99.90;;;;;;5103794;28;20048;-66
2023/09/21 06:45:19;;;;;;;5.32;3.35;;;17.70;99.90;;;;;;5085667;28;20048;-65
2023/09/21 06:47:47;;;;;;;6.18;3.55;;;17.60;99.90;;;;;;5098736;28;20028;-66
2023/09/21 06:50:14;;;;;;;5.43;3.15;;;17.60;99.90;;;;;;5103865;28;20032;-66
2023/09/21 06:52:45;;;;;;;4.00;3.35;;;17.60;99.90;;;;;;5106374;28;20028;-67
2023/09/21 06:55:14;;;;;;;5.65;3.95;;;17.70;99.90;;;;;;5084525;28;20024;-66
2023/09/21 06:57:40;;;;;;;5.55;3.45;;;17.80;99.90;;;;;;5091232;28;20166;-66
2023/09/21 07:00:09;;;;;;;7.35;3.70;;;17.90;99.90;;;;;;5101963;28;20106;-66
2023/09/21 07:02:36;;;;;;;6.50;4.13;;;18.00;99.90;;;;;;5100900;28;20028;-66
2023/09/21 07:05:01;;;;;;;7.43;3.75;;;18.10;99.90;;;;;;5096538;28;20024;-65
2023/09/21 07:07:28;;;;;;;5.80;3.15;;;18.30;99.90;;;;;;5104279;28;20026;-65
2023/09/21 07:09:54;;;;;;;4.53;3.28;;;18.40;99.90;;;;;;5109575;28;20035;-66
2023/09/21 07:12:22;;;;;;;7.93;3.80;;;18.60;99.90;;;;;;5098465;28;20023;-68
2023/09/21 07:14:49;;;;;;;7.97;4.00;;;18.70;99.90;;;;;;5095349;28;20069;-66
2023/09/21 07:17:15;;;;;;;4.40;3.20;;;18.80;99.90;;;;;;5105102;28;20442;-67
2023/09/21 07:19:41;;;;;;;5.53;3.30;;;18.90;99.90;;;;;;5088461;28;20039;-68
2023/09/21 07:22:07;;;;;;;6.05;3.40;;;19.00;99.90;;;;;;5094106;28;20070;-67
2023/09/21 07:24:32;;;;;;;7.32;3.63;;;19.10;99.90;;;;;;5077898;28;20101;-67
2023/09/21 07:26:58;;;;;;;7.07;3.63;;;19.20;99.90;;;;;;5085281;28;20085;-67
2023/09/21 07:29:24;;;;;;;11.98;4.10;;;19.40;99.90;;;;;;5102020;28;20031;-68
2023/09/21 07:31:50;;;;;;;7.93;3.65;;;19.50;99.90;;;;;;5105986;28;20031;-68
2023/09/21 07:34:16;;;;;;;4.60;3.15;;;19.70;99.90;;;;;;5096051;28;20053;-67
2023/09/21 07:36:42;;;;;;;5.32;3.38;;;19.80;99.90;;;;;;5098203;28;20028;-68
2023/09/21 07:39:10;;;;;;;3.85;2.50;;;19.90;99.90;;;;;;5103137;28;20028;-68
2023/09/21 07:41:36;;;;;;;6.85;3.58;;;20.00;99.90;;;;;;5110989;28;20027;-68
2023/09/21 07:44:03;;;;;;;5.60;2.72;;;20.10;99.90;;;;;;5089875;28;20062;-66
2023/09/21 07:46:29;;;;;;;6.03;2.88;;;20.20;99.90;;;;;;5101936;28;20131;-68
2023/09/21 07:48:55;;;;;;;5.13;2.75;;;20.20;99.90;;;;;;5107036;28;20038;-68
2023/09/21 07:51:21;;;;;;;6.25;3.20;;;20.20;99.90;;;;;;5100803;28;20020;-68
2023/09/21 07:53:47;;;;;;;5.30;2.60;;;20.30;99.90;;;;;;5100119;28;20028;-67
2023/09/21 07:56:13;;;;;;;2.75;2.30;;;20.30;99.90;;;;;;5069131;28;20094;-68
2023/09/21 07:58:39;;;;;;;5.95;3.15;;;20.40;99.90;;;;;;5100290;28;20027;-67
2023/09/21 08:01:05;;;;;;;6.20;2.72;;;20.60;99.90;;;;;;5094646;28;20027;-67
2023/09/21 08:03:31;;;;;;;7.30;3.15;;;20.70;99.90;;;;;;5096131;28;20035;-67
2023/09/21 08:05:57;;;;;;;11.27;3.63;;;20.70;99.90;;;;;;5099639;28;20465;-67
2023/09/21 08:08:26;;;;;;;5.30;3.58;;;20.80;99.90;;;;;;5090735;28;20069;-67
2023/09/21 08:10:53;;;;;;;9.00;3.95;;;20.80;99.90;;;;;;5102899;28;20419;-67
2023/09/21 08:13:20;;;;;;;5.47;3.47;;;20.90;99.90;;;;;;5101895;28;20026;-67
2023/09/21 08:15:46;;;;;;;4.97;3.20;;;21.00;99.90;;;;;;5096220;28;20043;-67
2023/09/21 08:18:12;;;;;;;6.30;3.53;;;21.20;99.90;;;;;;5089024;28;20035;-67
2023/09/21 08:20:39;;;;;;;7.50;3.65;;;21.40;99.90;;;;;;5105136;28;20088;-67
2023/09/21 08:23:06;;;;;;;6.75;3.67;;;21.60;99.90;;;;;;5093191;28;20490;-67
2023/09/21 08:25:33;;;;;;;8.27;3.30;;;21.90;99.90;;;;;;5087991;28;20076;-67
2023/09/21 08:27:59;;;;;;;9.15;4.18;;;22.10;99.90;;;;;;5095798;28;20035;-67
2023/09/21 08:30:25;;;;;;;11.40;2.97;;;22.30;99.90;;;;;;5092057;28;20024;-67
2023/09/21 08:32:51;;;;;;;5.88;3.03;;;22.50;99.90;;;;;;5097101;28;20030;-68
2023/09/21 08:35:17;;;;;;;5.18;3.00;;;22.70;99.90;;;;;;5103387;28;20460;-67
2023/09/21 08:37:43;;;;;;;5.28;3.08;;;22.80;99.90;;;;;;5110363;28;20042;-68
2023/09/21 08:40:09;;;;;;;5.53;2.92;;;22.80;99.90;;;;;;5098278;28;20044;-68
2023/09/21 08:42:36;;;;;;;10.05;3.22;;;22.90;99.90;;;;;;5095605;28;20082;-68
2023/09/21 08:45:09;;;;;;;3.78;2.78;;;22.90;99.90;;;;;;5103158;28;20055;-68
2023/09/21 08:47:37;;;;;;;6.97;2.97;;;23.00;99.90;;;;;;5100005;28;20039;-68
2023/09/21 08:50:04;;;;;;;5.97;2.75;;;23.10;99.90;;;;;;5098699;28;20046;-69
2023/09/21 08:52:33;;;;;;;5.93;3.00;;;23.30;99.90;;;;;;5102106;28;20499;-68
2023/09/21 08:54:59;;;;;;;7.85;3.03;;;23.70;99.90;;;;;;5095400;28;20112;-69
2023/09/21 08:57:25;;;;;;;5.03;2.63;;;24.00;99.90;;;;;;5085940;28;20099;-68
2023/09/21 08:59:54;;;;;;;5.63;2.67;;;24.40;99.90;;;;;;5089476;28;20059;-68
2023/09/21 09:02:22;;;;;;;6.10;2.92;;;24.60;99.90;;;;;;5081454;28;20106;-69
2023/09/21 09:04:50;;;;;;;6.50;2.67;;;24.70;99.90;;;;;;5103437;28;20016;-68
2023/09/21 09:07:16;;;;;;;10.30;2.30;;;25.00;99.90;;;;;;5095912;28;20126;-68
2023/09/21 09:09:41;;;;;;;8.10;2.47;;;25.10;99.90;;;;;;5105766;28;20027;-68
2023/09/21 09:12:26;;;;;;;4.78;2.30;;;25.20;99.90;;;;;;5108270;28;20383;-69
2023/09/21 09:14:52;;;;;;;4.15;2.15;;;25.20;99.90;;;;;;5088553;28;20026;-69
2023/09/21 09:17:18;;;;;;;6.93;3.70;;;25.30;99.90;;;;;;5102719;28;20103;-68
2023/09/21 09:19:46;;;;;;;8.35;3.20;;;25.40;99.90;;;;;;5101736;28;20123;-66
2023/09/21 09:22:13;;;;;;;5.82;3.13;;;25.40;99.90;;;;;;5099572;28;20081;-68
2023/09/21 09:24:38;;;;;;;4.50;3.00;;;25.50;99.90;;;;;;5102319;28;20519;-68
2023/09/21 09:27:04;;;;;;;4.80;3.15;;;25.50;99.90;;;;;;5093588;28;20032;-68
2023/09/21 09:29:30;;;;;;;10.77;2.90;;;25.40;99.90;;;;;;5098319;28;20111;-67
2023/09/21 09:31:55;;;;;;;7.20;2.88;;;25.40;99.90;;;;;;5095954;28;20435;-66
2023/09/21 09:34:22;;;;;;;9.43;2.97;;;25.50;99.90;;;;;;5083756;28;20085;-66
2023/09/21 09:36:51;;;;;;;4.95;2.63;;;25.70;99.90;;;;;;5111339;28;20383;-66
2023/09/21 09:39:18;;;;;;;6.15;2.50;;;25.80;99.90;;;;;;5104067;28;20024;-68
2023/09/21 09:41:49;;;;;;;7.57;2.97;;;26.10;99.90;;;;;;5104304;28;20044;-68
2023/09/21 09:44:21;;;;;;;5.57;2.90;;;26.50;99.90;;;;;;5104999;28;20082;-68
2023/09/21 09:46:52;;;;;;;6.25;2.58;;;26.70;99.90;;;;;;5107498;28;20067;-68
2023/09/21 09:49:20;;;;;;;6.65;2.83;;;26.70;99.60;;;;;;5097651;28;20036;-69
2023/09/21 09:51:46;;;;;;;11.30;3.15;;;26.70;99.90;;;;;;5106590;28;20053;-68
2023/09/21 09:54:13;;;;;;;6.82;3.15;;;26.90;99.90;;;;;;5096514;28;20028;-69
2023/09/21 09:56:42;;;;;;;6.60;2.38;;;27.00;99.90;;;;;;5089545;28;20060;-68
2023/09/21 09:59:11;;;;;;;5.60;2.70;;;27.00;99.90;;;;;;5093867;28;20125;-69
2023/09/21 10:01:44;;;;;;;2.13;1.92;;;27.00;99.90;;;;;;5110946;28;20114;-68
2023/09/21 10:04:09;;;;;;;20.35;3.30;;;27.00;99.90;;;;;;5090292;28;20024;-68
2023/09/21 10:06:36;;;;;;;17.13;3.42;;;27.10;99.90;;;;;;5100606;28;20031;-69
2023/09/21 10:09:10;;;;;;;22.88;3.47;;;27.10;99.90;;;;;;5085848;28;20039;-69
2023/09/21 10:11:48;;;;;;;15.63;3.33;;;27.00;99.90;;;;;;5112815;28;20072;-68
2023/09/21 10:14:16;;;;;;;9.10;2.63;;;26.90;99.90;;;;;;5096317;28;20397;-68
2023/09/21 10:16:49;;;;;;;5.50;2.13;;;26.90;99.90;;;;;;5102213;28;20024;-68
2023/09/21 10:19:22;;;;;;;12.75;2.60;;;26.90;99.90;;;;;;5077668;28;20468;-68
2023/09/21 10:21:49;;;;;;;2.25;1.60;;;26.90;99.90;;;;;;5097683;28;20078;-68
2023/09/21 10:24:18;;;;;;;5.47;2.10;;;27.00;99.90;;;;;;5095401;28;20333;-69
2023/09/21 10:26:49;;;;;;;5.72;2.00;;;27.00;99.90;;;;;;5088992;28;20031;-68
2023/09/21 10:29:19;;;;;;;7.65;2.22;;;26.90;99.90;;;;;;5086325;28;20544;-68
2023/09/21 10:31:53;;;;;;;2.42;1.85;;;26.90;99.90;;;;;;5092353;28;20020;-68
2023/09/21 10:34:22;;;;;;;3.58;2.30;;;;;;;;;;5102935;28;20031;-68
2023/09/21 10:36:50;;;;;;;4.25;2.13;;;;;;;;;;5097105;28;20391;-68
2023/09/21 10:39:24;;;;;;;2.20;1.48;;;27.50;99.90;;;;;;5103437;28;20062;-68
2023/09/21 10:41:54;;;;;;;4.65;2.35;;;;;;;;;;5087658;28;20123;-68
2023/09/21 10:44:39;;;;;;;2.75;1.75;;;;;;;;;;5078805;28;20082;-68
2023/09/21 10:47:05;;;;;;;3.03;2.08;;;28.20;92.60;;;;;;5094856;28;20119;-68
2023/09/21 10:49:34;;;;;;;7.63;1.90;;;28.30;92.40;;;;;;5098278;28;20153;-68
2023/09/21 10:52:02;;;;;;;2.15;1.92;;;28.30;92.30;;;;;;5108872;28;20081;-68
2023/09/21 10:54:28;;;;;;;3.22;1.95;;;28.50;92.10;;;;;;5094266;28;20027;-69
2023/09/21 10:56:53;;;;;;;1.85;1.65;;;28.50;91.90;;;;;;5086373;28;20055;-68
2023/09/21 10:59:19;;;;;;;3.03;2.67;;;28.60;91.60;;;;;;5096001;28;20171;-69
2023/09/21 11:01:45;;;;;;;4.47;2.00;;;28.80;91.50;;;;;;5108352;28;20126;-68
2023/09/21 11:04:11;;;;;;;2.65;1.88;;;29.00;91.00;;;;;;5095875;28;20023;-68
2023/09/21 11:06:37;;;;;;;1.70;1.60;;;28.90;91.00;;;;;;5097750;28;20016;-68
2023/09/21 11:09:07;;;;;;;5.35;1.65;;;29.00;90.90;;;;;;5101874;28;20028;-67
2023/09/21 11:11:34;;;;;;;2.78;1.83;;;29.00;90.90;;;;;;5101973;28;20092;-67
2023/09/21 11:14:03;;;;;;;2.20;1.58;;;29.00;90.80;;;;;;5097408;28;20511;-67
2023/09/21 11:16:29;;;;;;;4.18;1.45;;;29.00;90.50;;;;;;5085593;28;20032;-68
2023/09/21 11:18:55;;;;;;;3.08;2.00;;;29.10;90.40;;;;;;5100518;28;20035;-68
2023/09/21 11:21:22;;;;;;;1.70;1.60;;;29.30;90.40;;;;;;5086279;28;20035;-67
2023/09/21 11:23:49;;;;;;;1.70;1.60;;;29.40;90.30;;;;;;5095853;28;20016;-68
2023/09/21 11:26:15;;;;;;;1.83;1.35;;;29.50;89.80;;;;;;5103666;28;20070;-68
2023/09/21 11:28:41;;;;;;;2.60;1.67;;;29.30;89.00;;;;;;5105898;28;20429;-68
2023/09/21 11:31:08;;;;;;;2.47;1.90;;;29.20;89.40;;;;;;5093125;28;20107;-67
2023/09/21 11:33:36;;;;;;;3.92;1.98;;;29.10;89.90;;;;;;5102792;28;20073;-68
2023/09/21 11:36:06;;;;;;;2.90;2.50;;;28.90;90.20;;;;;;5108651;28;20028;-67
2023/09/21 11:38:33;;;;;;;5.03;2.40;;;28.90;90.20;;;;;;5096695;28;20028;-68
2023/09/21 11:40:59;;;;;;;3.30;1.60;;;28.90;89.70;;;;;;5091792;28;20057;-67
2023/09/21 11:43:25;;;;;;;30.50;3.13;;;28.90;89.80;;;;;;5100103;28;20036;-67
2023/09/21 11:45:51;;;;;;;2.75;1.48;;;29.00;89.90;;;;;;5098822;28;20553;-67
2023/09/21 11:48:18;;;;;;;2.70;1.55;;;29.00;89.50;;;;;;5101516;28;20032;-68
2023/09/21 11:50:45;;;;;;;3.30;1.40;;;29.00;89.50;;;;;;5084483;28;20413;-68
2023/09/21 11:53:12;;;;;;;3.83;2.05;;;28.90;89.20;;;;;;5102841;28;20371;-67
2023/09/21 11:55:38;;;;;;;2.85;1.30;;;28.90;88.90;;;;;;5094867;28;20413;-67
2023/09/21 11:58:10;;;;;;;3.00;1.45;;;28.90;89.30;;;;;;5097999;28;20075;-67
2023/09/21 12:00:44;;;;;;;2.38;1.45;;;28.90;89.00;;;;;;5097090;28;20028;-67
2023/09/21 12:03:17;;;;;;;2.40;1.40;;;29.00;89.30;;;;;;5102643;28;20035;-68
2023/09/21 12:05:43;;;;;;;5.47;1.73;;;29.10;89.70;;;;;;5101120;28;20061;-67
2023/09/21 12:08:16;;;;;;;3.42;2.05;;;29.20;89.00;;;;;;5100609;28;20493;-67
2023/09/21 12:10:46;;;;;;;3.50;2.00;;;29.20;88.60;;;;;;5095047;28;20128;-68
2023/09/21 12:13:13;;;;;;;5.28;1.90;;;29.20;88.30;;;;;;5090096;28;20417;-68
2023/09/21 12:15:40;;;;;;;2.03;1.75;;;29.40;88.80;;;;;;5101315;28;20034;-68
2023/09/21 12:18:07;;;;;;;3.95;1.67;;;29.70;87.90;;;;;;5106871;28;20038;-67
2023/09/21 12:20:36;;;;;;;4.25;1.67;;;29.90;88.00;;;;;;5092607;28;20459;-68
2023/09/21 12:23:05;;;;;;;1.77;1.67;;;30.10;87.50;;;;;;5089597;28;20042;-67
2023/09/21 12:25:32;;;;;;;1.97;1.77;;;30.30;86.30;;;;;;5095918;28;20246;-67
2023/09/21 12:27:57;;;;;;;6.22;1.85;;;30.40;86.10;;;;;;5109922;28;20077;-67
2023/09/21 12:30:23;;;;;;;1.70;1.60;;;30.60;85.30;;;;;;5093406;28;20036;-67
2023/09/21 12:32:49;;;;;;;4.18;1.70;;;30.70;86.00;;;;;;5091526;28;20069;-68
2023/09/21 12:35:17;;;;;;;2.25;1.45;;;30.80;84.50;;;;;;5106401;28;20464;-67
2023/09/21 12:37:44;;;;;;;4.50;1.80;;;31.00;84.60;;;;;;5099263;28;20024;-67
2023/09/21 12:40:14;;;;;;;2.05;1.52;;;31.50;83.70;;;;;;5098997;28;20024;-67
2023/09/21 12:42:45;;;;;;;9.13;1.80;;;31.90;82.80;;;;;;5098530;28;20059;-68
2023/09/21 12:45:12;;;;;;;3.03;1.67;;;32.00;83.10;;;;;;5081177;28;20052;-67
2023/09/21 12:47:41;;;;;;;1.67;1.55;;;32.10;82.50;;;;;;5095121;28;20020;-68
2023/09/21 12:50:09;;;;;;;1.97;1.77;;;32.10;81.60;;;;;;5099034;28;20110;-67